Time,TemperatureF,DewpointF,PressureIn,WindDirection,WindDirectionDegrees,WindSpeedMPH,WindSpeedGustMPH,Humidity,HourlyPrecipIn,Conditions,Clouds,dailyrainin,SoftwareType,DateUTC
2013-09-02 00:01:00,73.4,71.0,29.83,SE,138,1.2,1.2,92,0.00,RA,,0.00,WeatherDisplay:10.37,2013-09-02 04:01:00,
2013-09-02 00:02:00,73.3,70.9,29.83,South,181,1.8,1.8,92,0.00,RA,,0.00,WeatherDisplay:10.37,2013-09-02 04:02:00,
2013-09-02 00:03:00,73.2,70.8,29.83,SW,222,3.5,3.5,92,0.00,RA,,0.00,WeatherDisplay:10.37,2013-09-02 04:03:00,
2013-09-02 00:06:00,73.2,70.8,29.83,SW,222,0.0,0.0,92,0.00,RA,,0.00,WeatherDisplay:10.37,2013-09-02 04:06:00,
2013-09-02 00:11:00,73.3,70.9,29.83,SSE,165,4.6,4.6,92,0.00,OVC,,0.00,WeatherDisplay:10.37,2013-09-02 04:11:00,
2013-09-02 00:12:00,73.2,70.8,29.83,SSE,165,1.2,0.0,92,0.00,OVC,,0.00,WeatherDisplay:10.37,2013-09-02 04:12:00,
2013-09-02 00:17:00,73.5,71.1,29.82,NE,51,0.0,0.0,92,0.00,OVC,,0.00,WeatherDisplay:10.37,2013-09-02 04:17:00,
2013-09-02 00:22:00,73.3,70.9,29.82,NE,51,1.2,0.0,92,0.00,OVC,,0.00,WeatherDisplay:10.37,2013-09-02 04:22:00,
2013-09-02 00:27:00,73.3,70.9,29.82,South,171,0.0,0.0,92,0.00,OVC,,0.00,WeatherDisplay:10.37,2013-09-02 04:27:00,
2013-09-02 00:32:00,73.3,70.9,29.83,South,171,0.0,0.0,92,0.00,OVC,,0.00,WeatherDisplay:10.37,2013-09-02 04:32:00,
2013-09-02 00:37:00,73.3,70.9,29.83,South,171,0.0,0.0,92,0.00,OVC,,0.00,WeatherDisplay:10.37,2013-09-02 04:37:00,
2013-09-02 00:42:00,73.4,71.0,29.83,South,171,0.0,0.0,92,0.00,OVC,,0.00,WeatherDisplay:10.37,2013-09-02 04:42:00,
2013-09-02 00:47:00,73.2,70.8,29.83,SE,143,0.0,0.0,92,0.00,OVC,,0.00,WeatherDisplay:10.37,2013-09-02 04:47:00,
2013-09-02 00:52:00,73.4,71.0,29.83,SE,143,0.0,0.0,92,0.00,OVC,,0.00,WeatherDisplay:10.37,2013-09-02 04:52:00,
2013-09-02 00:57:00,73.3,70.9,29.82,ENE,72,2.3,2.3,92,0.00,OVC,,0.00,WeatherDisplay:10.37,2013-09-02 04:57:00,
2013-09-02 01:02:00,73.2,70.8,29.82,East,90,1.3,1.3,92,0.00,OVC,,0.00,WeatherDisplay:10.37,2013-09-02 05:02:00,
2013-09-02 01:07:00,73.1,70.7,29.82,SE,130,2.7,2.7,92,0.00,OVC,,0.00,WeatherDisplay:10.37,2013-09-02 05:07:00,
2013-09-02 01:12:00,73.1,70.7,29.82,East,79,0.0,0.0,92,0.00,OVC,,0.00,WeatherDisplay:10.37,2013-09-02 05:12:00,
2013-09-02 01:17:00,73.0,70.6,29.82,East,79,0.0,0.0,92,0.00,OVC,,0.00,WeatherDisplay:10.37,2013-09-02 05:17:00,
2013-09-02 01:22:00,73.3,70.9,29.82,East,79,0.0,0.0,92,0.00,OVC,,0.00,WeatherDisplay:10.37,2013-09-02 05:22:00,
2013-09-02 01:27:00,73.0,70.6,29.82,SSE,160,0.0,0.0,92,0.00,OVC,,0.00,WeatherDisplay:10.37,2013-09-02 05:27:00,
2013-09-02 01:32:00,73.1,70.7,29.82,SSE,160,0.0,0.0,92,0.00,OVC,,0.00,WeatherDisplay:10.37,2013-09-02 05:32:00,
2013-09-02 01:37:00,73.2,70.8,29.82,SSE,160,0.0,0.0,92,0.00,OVC,,0.00,WeatherDisplay:10.37,2013-09-02 05:37:00,
2013-09-02 01:42:00,73.1,70.7,29.83,SSE,160,0.0,0.0,92,0.00,OVC,,0.00,WeatherDisplay:10.37,2013-09-02 05:42:00,
2013-09-02 01:47:00,73.2,70.8,29.82,SSE,160,0.0,0.0,92,0.00,OVC,,0.00,WeatherDisplay:10.37,2013-09-02 05:47:00,
2013-09-02 01:52:00,73.1,70.7,29.82,SSE,160,0.0,0.0,92,0.00,OVC,,0.00,WeatherDisplay:10.37,2013-09-02 05:52:00,
2013-09-02 01:57:00,73.2,70.8,29.82,SSE,160,0.0,0.0,92,0.00,OVC,,0.00,WeatherDisplay:10.37,2013-09-02 05:57:00,
2013-09-02 02:02:00,73.1,70.7,29.82,SSE,147,3.5,3.5,92,0.00,OVC,,0.00,WeatherDisplay:10.37,2013-09-02 06:02:00,
2013-09-02 02:07:00,73.3,70.9,29.82,SSE,147,0.0,0.0,92,0.00,OVC,,0.00,WeatherDisplay:10.37,2013-09-02 06:07:00,
2013-09-02 02:12:00,73.1,70.7,29.82,SSE,147,0.0,0.0,92,0.00,OVC,,0.00,WeatherDisplay:10.37,2013-09-02 06:12:00,
2013-09-02 02:17:00,73.0,70.6,29.81,SSE,147,0.0,0.0,92,0.00,OVC,,0.00,WeatherDisplay:10.37,2013-09-02 06:17:00,
2013-09-02 02:22:00,73.2,70.8,29.81,SSE,147,0.0,0.0,92,0.00,OVC,,0.00,WeatherDisplay:10.37,2013-09-02 06:22:00,
2013-09-02 02:27:00,73.1,70.7,29.81,SSE,147,0.0,0.0,92,0.00,OVC,,0.00,WeatherDisplay:10.37,2013-09-02 06:27:00,
2013-09-02 02:32:00,73.0,70.6,29.81,SSE,147,0.0,0.0,92,0.00,OVC,,0.00,WeatherDisplay:10.37,2013-09-02 06:32:00,
2013-09-02 02:37:00,73.3,70.9,29.81,SSE,147,0.0,0.0,92,0.00,OVC,,0.00,WeatherDisplay:10.37,2013-09-02 06:37:00,
2013-09-02 02:42:00,73.2,70.8,29.81,SSE,147,0.0,0.0,92,0.00,OVC,,0.00,WeatherDisplay:10.37,2013-09-02 06:42:00,
2013-09-02 02:47:00,73.1,70.7,29.81,SSE,147,0.0,0.0,92,0.00,OVC,,0.00,WeatherDisplay:10.37,2013-09-02 06:47:00,
2013-09-02 02:52:00,73.0,70.6,29.81,SSE,147,0.0,0.0,92,0.00,OVC,,0.00,WeatherDisplay:10.37,2013-09-02 06:52:00,
2013-09-02 02:57:00,73.1,70.7,29.81,SSE,147,0.0,0.0,92,0.00,OVC,,0.00,WeatherDisplay:10.37,2013-09-02 06:57:00,
2013-09-02 03:02:00,73.4,71.0,29.81,SSE,147,0.0,0.0,92,0.00,OVC,,0.00,WeatherDisplay:10.37,2013-09-02 07:02:00,
2013-09-02 03:07:00,73.2,70.8,29.80,SSE,147,0.0,0.0,92,0.00,OVC,,0.00,WeatherDisplay:10.37,2013-09-02 07:07:00,
2013-09-02 03:12:00,73.3,70.9,29.80,SSE,147,0.0,0.0,92,0.00,OVC,,0.00,WeatherDisplay:10.37,2013-09-02 07:12:00,
2013-09-02 03:17:00,73.2,70.8,29.79,SSE,147,0.0,0.0,92,0.00,OVC,,0.00,WeatherDisplay:10.37,2013-09-02 07:17:00,
2013-09-02 03:22:00,73.0,70.6,29.79,SSE,147,0.0,0.0,92,0.00,OVC,,0.00,WeatherDisplay:10.37,2013-09-02 07:22:00,
2013-09-02 03:27:00,73.2,70.8,29.79,SSE,147,0.0,0.0,92,0.00,OVC,,0.00,WeatherDisplay:10.37,2013-09-02 07:27:00,
2013-09-02 03:32:00,73.0,70.9,29.79,SSE,147,0.0,0.0,93,0.00,OVC,,0.00,WeatherDisplay:10.37,2013-09-02 07:32:00,
2013-09-02 03:37:00,73.1,71.0,29.79,SSE,147,0.0,0.0,93,0.00,OVC,,0.00,WeatherDisplay:10.37,2013-09-02 07:37:00,
2013-09-02 03:42:00,73.2,71.1,29.79,NNE,17,1.2,0.0,93,0.00,OVC,,0.00,WeatherDisplay:10.37,2013-09-02 07:42:00,
2013-09-02 03:47:00,73.2,71.1,29.79,NNE,17,0.0,0.0,93,0.00,OVC,,0.00,WeatherDisplay:10.37,2013-09-02 07:47:00,
2013-09-02 03:52:00,73.2,71.1,29.79,NNE,17,0.0,0.0,93,0.00,OVC,,0.00,WeatherDisplay:10.37,2013-09-02 07:52:00,
2013-09-02 03:57:00,73.1,71.0,29.79,South,184,4.3,4.3,93,0.00,OVC,,0.00,WeatherDisplay:10.37,2013-09-02 07:57:00,
2013-09-02 04:02:00,73.1,71.0,29.79,SSE,160,0.0,0.0,93,0.00,OVC,,0.00,WeatherDisplay:10.37,2013-09-02 08:02:00,
2013-09-02 04:07:00,73.0,70.9,29.79,SSW,195,3.5,3.5,93,0.00,OVC,,0.00,WeatherDisplay:10.37,2013-09-02 08:07:00,
2013-09-02 04:12:00,73.2,71.1,29.79,West,268,4.3,4.3,93,0.00,OVC,,0.00,WeatherDisplay:10.37,2013-09-02 08:12:00,
2013-09-02 04:17:00,73.4,71.3,29.79,South,184,0.0,0.0,93,0.00,OVC,,0.00,WeatherDisplay:10.37,2013-09-02 08:17:00,
2013-09-02 04:22:00,73.5,71.4,29.78,SW,224,0.0,0.0,93,0.00,OVC,,0.00,WeatherDisplay:10.37,2013-09-02 08:22:00,
2013-09-02 04:27:00,73.3,71.2,29.78,SW,224,0.0,0.0,93,0.00,OVC,,0.00,WeatherDisplay:10.37,2013-09-02 08:27:00,
2013-09-02 04:32:00,73.2,71.1,29.78,SW,224,0.0,0.0,93,0.00,OVC,,0.00,WeatherDisplay:10.37,2013-09-02 08:32:00,
2013-09-02 04:37:00,73.2,71.1,29.78,SW,215,0.0,0.0,93,0.00,OVC,,0.00,WeatherDisplay:10.37,2013-09-02 08:37:00,
2013-09-02 04:42:00,73.3,71.2,29.78,SW,215,0.0,0.0,93,0.00,OVC,,0.00,WeatherDisplay:10.37,2013-09-02 08:42:00,
2013-09-02 04:47:00,73.3,71.2,29.78,SW,215,0.0,0.0,93,0.00,OVC,,0.00,WeatherDisplay:10.37,2013-09-02 08:47:00,
2013-09-02 04:52:00,73.4,71.3,29.78,SSE,150,0.0,0.0,93,0.00,OVC,,0.00,WeatherDisplay:10.37,2013-09-02 08:52:00,
2013-09-02 04:57:00,73.3,71.2,29.79,SSE,150,0.0,0.0,93,0.00,OVC,,0.00,WeatherDisplay:10.37,2013-09-02 08:57:00,
2013-09-02 05:02:00,73.4,71.3,29.79,SE,144,0.0,0.0,93,0.00,OVC,,0.00,WeatherDisplay:10.37,2013-09-02 09:02:00,
2013-09-02 05:07:00,73.4,71.3,29.79,SE,144,0.0,0.0,93,0.00,OVC,,0.00,WeatherDisplay:10.37,2013-09-02 09:07:00,
2013-09-02 05:12:00,73.6,71.5,29.79,SE,144,0.0,0.0,93,0.00,OVC,,0.00,WeatherDisplay:10.37,2013-09-02 09:12:00,
2013-09-02 05:17:00,73.3,71.2,29.79,SE,144,0.0,0.0,93,0.00,OVC,,0.00,WeatherDisplay:10.37,2013-09-02 09:17:00,
2013-09-02 05:22:00,73.3,71.2,29.79,SE,134,0.0,0.0,93,0.00,OVC,,0.00,WeatherDisplay:10.37,2013-09-02 09:22:00,
2013-09-02 05:27:00,73.4,71.3,29.79,SE,134,0.0,0.0,93,0.00,OVC,,0.00,WeatherDisplay:10.37,2013-09-02 09:27:00,
2013-09-02 05:32:00,73.5,71.4,29.79,SE,134,0.0,0.0,93,0.00,OVC,,0.00,WeatherDisplay:10.37,2013-09-02 09:32:00,
2013-09-02 05:37:00,73.5,71.4,29.79,SE,134,0.0,0.0,93,0.00,OVC,,0.00,WeatherDisplay:10.37,2013-09-02 09:37:00,
2013-09-02 05:42:00,73.5,71.4,29.79,SE,134,0.0,0.0,93,0.00,OVC,,0.00,WeatherDisplay:10.37,2013-09-02 09:42:00,
2013-09-02 05:47:00,73.4,71.3,29.79,SE,134,0.0,0.0,93,0.00,OVC,,0.00,WeatherDisplay:10.37,2013-09-02 09:47:00,
2013-09-02 05:52:00,73.4,71.3,29.79,SE,134,0.0,0.0,93,0.00,OVC,,0.00,WeatherDisplay:10.37,2013-09-02 09:52:00,
2013-09-02 05:57:00,73.6,71.5,29.79,SE,134,0.0,0.0,93,0.00,OVC,,0.00,WeatherDisplay:10.37,2013-09-02 09:57:00,
2013-09-02 06:02:00,73.2,71.1,29.79,SE,134,0.0,0.0,93,0.00,OVC,,0.00,WeatherDisplay:10.37,2013-09-02 10:02:00,
2013-09-02 06:07:00,73.5,71.4,29.79,SE,134,0.0,0.0,93,0.00,OVC,,0.00,WeatherDisplay:10.37,2013-09-02 10:07:00,
2013-09-02 06:12:00,73.4,71.3,29.79,SE,134,0.0,0.0,93,0.00,OVC,,0.00,WeatherDisplay:10.37,2013-09-02 10:12:00,
2013-09-02 06:17:00,73.4,71.3,29.79,SE,134,0.0,0.0,93,0.00,OVC,,0.00,WeatherDisplay:10.37,2013-09-02 10:17:00,
2013-09-02 06:22:00,73.3,71.2,29.80,SE,134,0.0,0.0,93,0.00,OVC,,0.00,WeatherDisplay:10.37,2013-09-02 10:22:00,
2013-09-02 06:27:00,73.1,71.3,29.80,SE,134,0.0,0.0,94,0.00,OVC,,0.00,WeatherDisplay:10.37,2013-09-02 10:27:00,
2013-09-02 06:32:00,73.2,71.4,29.80,SE,134,0.0,0.0,94,0.00,OVC,,0.00,WeatherDisplay:10.37,2013-09-02 10:32:00,
2013-09-02 06:37:00,73.2,71.4,29.80,SE,134,0.0,0.0,94,0.00,OVC,,0.00,WeatherDisplay:10.37,2013-09-02 10:37:00,
2013-09-02 06:42:00,73.6,71.8,29.80,SE,134,0.0,0.0,94,0.00,OVC,,0.00,WeatherDisplay:10.37,2013-09-02 10:42:00,
2013-09-02 06:47:00,73.3,71.5,29.80,SE,134,0.0,0.0,94,0.00,OVC,,0.00,WeatherDisplay:10.37,2013-09-02 10:47:00,
2013-09-02 06:52:00,73.2,71.4,29.80,SE,134,0.0,0.0,94,0.00,OVC,,0.00,WeatherDisplay:10.37,2013-09-02 10:52:00,
2013-09-02 06:57:00,73.4,71.6,29.80,SE,134,0.0,0.0,94,0.00,OVC,,0.00,WeatherDisplay:10.37,2013-09-02 10:57:00,
2013-09-02 07:02:00,73.3,71.5,29.80,SE,134,0.0,0.0,94,0.00,OVC,,0.00,WeatherDisplay:10.37,2013-09-02 11:02:00,
2013-09-02 07:07:00,73.4,71.6,29.80,SE,134,0.0,0.0,94,0.00,OVC,,0.00,WeatherDisplay:10.37,2013-09-02 11:07:00,
2013-09-02 07:12:00,73.6,71.8,29.80,SE,134,0.0,0.0,94,0.00,OVC,,0.00,WeatherDisplay:10.37,2013-09-02 11:12:00,
2013-09-02 07:17:00,73.6,71.8,29.80,SE,134,0.0,0.0,94,0.00,OVC,,0.00,WeatherDisplay:10.37,2013-09-02 11:17:00,
2013-09-02 07:22:00,73.7,71.9,29.79,SE,134,0.0,0.0,94,0.00,OVC,,0.00,WeatherDisplay:10.37,2013-09-02 11:22:00,
2013-09-02 07:27:00,73.6,71.8,29.80,SE,134,0.0,0.0,94,0.00,OVC,,0.00,WeatherDisplay:10.37,2013-09-02 11:27:00,
2013-09-02 07:32:00,73.4,71.6,29.80,SE,134,0.0,0.0,94,0.00,OVC,,0.00,WeatherDisplay:10.37,2013-09-02 11:32:00,
2013-09-02 07:37:00,73.8,72.0,29.80,SE,134,0.0,0.0,94,0.00,OVC,,0.00,WeatherDisplay:10.37,2013-09-02 11:37:00,
2013-09-02 07:42:00,73.7,71.9,29.80,SE,134,0.0,0.0,94,0.00,OVC,,0.00,WeatherDisplay:10.37,2013-09-02 11:42:00,
2013-09-02 07:47:00,73.7,71.9,29.80,SE,134,0.0,0.0,94,0.00,OVC,,0.00,WeatherDisplay:10.37,2013-09-02 11:47:00,
2013-09-02 07:52:00,73.7,71.9,29.80,SE,134,0.0,0.0,94,0.00,OVC,,0.00,WeatherDisplay:10.37,2013-09-02 11:52:00,
2013-09-02 07:57:00,73.6,71.8,29.80,SE,134,0.0,0.0,94,0.00,OVC,,0.00,WeatherDisplay:10.37,2013-09-02 11:57:00,
2013-09-02 08:02:00,73.6,71.8,29.80,SE,134,0.0,0.0,94,0.00,OVC,,0.00,WeatherDisplay:10.37,2013-09-02 12:02:00,
2013-09-02 08:07:00,73.3,71.5,29.80,SE,134,0.0,0.0,94,0.00,OVC,,0.00,WeatherDisplay:10.37,2013-09-02 12:07:00,
2013-09-02 08:12:00,73.3,71.5,29.80,SE,134,0.0,0.0,94,0.00,OVC,,0.00,WeatherDisplay:10.37,2013-09-02 12:12:00,
2013-09-02 08:17:00,73.4,71.6,29.79,SE,134,0.0,0.0,94,0.00,OVC,,0.00,WeatherDisplay:10.37,2013-09-02 12:17:00,
2013-09-02 08:22:00,73.5,71.7,29.80,SE,134,0.0,0.0,94,0.00,OVC,,0.00,WeatherDisplay:10.37,2013-09-02 12:22:00,
2013-09-02 08:27:00,73.4,71.6,29.80,SE,134,0.0,0.0,94,0.00,OVC,,0.00,WeatherDisplay:10.37,2013-09-02 12:27:00,
2013-09-02 08:32:00,73.4,71.6,29.79,SE,134,0.0,0.0,94,0.00,OVC,,0.00,WeatherDisplay:10.37,2013-09-02 12:32:00,
2013-09-02 08:37:00,73.4,71.6,29.79,SSE,152,0.0,0.0,94,0.00,OVC,,0.00,WeatherDisplay:10.37,2013-09-02 12:37:00,
2013-09-02 08:42:00,73.5,71.7,29.79,SSE,152,0.0,0.0,94,0.00,OVC,,0.00,WeatherDisplay:10.37,2013-09-02 12:42:00,
2013-09-02 08:47:00,73.6,71.8,29.79,SSE,152,0.0,0.0,94,0.00,OVC,,0.00,WeatherDisplay:10.37,2013-09-02 12:47:00,
2013-09-02 08:52:00,73.2,71.4,29.79,SSE,152,0.0,0.0,94,0.00,OVC,,0.00,WeatherDisplay:10.37,2013-09-02 12:52:00,
2013-09-02 08:57:00,73.5,71.7,29.79,SSE,152,0.0,0.0,94,0.00,OVC,,0.00,WeatherDisplay:10.37,2013-09-02 12:57:00,
2013-09-02 09:02:00,73.7,71.9,29.80,SSE,152,0.0,0.0,94,0.00,OVC,,0.00,WeatherDisplay:10.37,2013-09-02 13:02:00,
2013-09-02 09:07:00,73.8,72.0,29.80,SSE,152,0.0,0.0,94,0.00,OVC,,0.00,WeatherDisplay:10.37,2013-09-02 13:07:00,
2013-09-02 09:12:00,73.7,71.6,29.80,SW,215,3.9,3.9,93,0.00,OVC,,0.00,WeatherDisplay:10.37,2013-09-02 13:12:00,
2013-09-02 09:17:00,73.7,71.6,29.80,SSE,158,0.0,0.0,93,0.00,OVC,,0.00,WeatherDisplay:10.37,2013-09-02 13:17:00,
2013-09-02 09:22:00,73.8,71.7,29.79,SW,234,2.8,2.8,93,0.00,OVC,,0.00,WeatherDisplay:10.37,2013-09-02 13:22:00,
2013-09-02 09:27:00,74.0,71.9,29.79,West,265,0.0,0.0,93,0.00,OVC,,0.00,WeatherDisplay:10.37,2013-09-02 13:27:00,
2013-09-02 09:32:00,74.1,72.0,29.79,West,265,0.0,0.0,93,0.00,OVC,,0.00,WeatherDisplay:10.37,2013-09-02 13:32:00,
2013-09-02 09:38:00,74.4,72.3,29.80,SSW,202,3.5,3.5,93,0.00,OVC,,0.00,WeatherDisplay:10.37,2013-09-02 13:38:00,
2013-09-02 09:43:00,74.4,72.3,29.80,ENE,78,2.1,2.1,93,0.00,OVC,,0.00,WeatherDisplay:10.37,2013-09-02 13:43:00,
2013-09-02 09:48:00,74.6,72.2,29.80,ESE,109,0.0,0.0,92,0.00,OVC,,0.00,WeatherDisplay:10.37,2013-09-02 13:48:00,
2013-09-02 09:53:00,74.8,72.4,29.81,ESE,109,0.0,0.0,92,0.00,OVC,,0.00,WeatherDisplay:10.37,2013-09-02 13:53:00,
2013-09-02 09:58:00,74.7,72.3,29.81,SW,216,1.2,0.0,92,0.00,OVC,,0.00,WeatherDisplay:10.37,2013-09-02 13:58:00,
2013-09-02 10:03:00,74.6,72.2,29.80,SW,219,0.0,0.0,92,0.00,OVC,,0.00,WeatherDisplay:10.37,2013-09-02 14:03:00,
2013-09-02 10:08:00,74.8,72.4,29.80,SW,219,0.0,0.0,92,0.00,OVC,,0.00,WeatherDisplay:10.37,2013-09-02 14:08:00,
2013-09-02 10:13:00,75.0,72.6,29.80,SW,219,0.0,0.0,92,0.00,OVC,,0.00,WeatherDisplay:10.37,2013-09-02 14:13:00,
2013-09-02 10:18:00,74.9,72.5,29.79,SW,219,0.0,0.0,92,0.00,OVC,,0.00,WeatherDisplay:10.37,2013-09-02 14:18:00,
2013-09-02 10:23:00,74.8,72.4,29.79,East,96,2.3,2.3,92,0.04,RA,,0.04,WeatherDisplay:10.37,2013-09-02 14:23:00,
2013-09-02 10:28:00,74.7,72.2,29.79,SE,127,1.0,3.0,92,0.00,RA,,0.06,WeatherDisplay:10.37,2013-09-02 14:28:00,
2013-09-02 10:34:00,74.5,72.1,29.79,East,80,0.0,0.0,92,0.07, +RA,,0.07,WeatherDisplay:10.37,2013-09-02 14:34:00,
2013-09-02 10:39:00,74.5,72.4,29.80,East,88,0.0,0.0,93,0.08, +RA,,0.08,WeatherDisplay:10.37,2013-09-02 14:39:00,
2013-09-02 10:44:00,74.3,72.2,29.80,East,88,0.0,0.0,93,0.09, +RA,,0.09,WeatherDisplay:10.37,2013-09-02 14:44:00,
2013-09-02 10:49:00,74.3,72.2,29.80,East,88,0.0,0.0,93,0.09, +RA,,0.09,WeatherDisplay:10.37,2013-09-02 14:49:00,
2013-09-02 10:54:00,74.2,72.1,29.80,SW,232,2.3,0.0,93,0.09, +RA,,0.09,WeatherDisplay:10.37,2013-09-02 14:54:00,
2013-09-02 10:59:00,74.1,72.0,29.79,SW,232,0.0,0.0,93,0.09, +RA,,0.09,WeatherDisplay:10.37,2013-09-02 14:59:00,
2013-09-02 11:04:00,73.9,71.5,29.79,SW,232,0.0,0.0,92,0.09,-RA,,0.09,WeatherDisplay:10.37,2013-09-02 15:04:00,
2013-09-02 11:09:00,73.8,71.4,29.79,SW,232,0.0,0.0,92,0.09,-RA,,0.09,WeatherDisplay:10.37,2013-09-02 15:09:00,
2013-09-02 11:14:00,73.7,71.6,29.79,SW,232,0.0,0.0,93,0.09,-RA,,0.09,WeatherDisplay:10.37,2013-09-02 15:14:00,
2013-09-02 11:19:00,73.6,71.5,29.79,SSE,152,3.5,3.5,93,0.09,-RA,,0.09,WeatherDisplay:10.37,2013-09-02 15:19:00,
2013-09-02 11:24:00,73.7,71.6,29.79,SSE,148,2.5,2.5,93,0.04,-RA,,0.09,WeatherDisplay:10.37,2013-09-02 15:24:00,
2013-09-02 11:29:00,73.4,71.3,29.79,SE,128,0.0,0.0,93,0.03,-RA,,0.09,WeatherDisplay:10.37,2013-09-02 15:29:00,
2013-09-02 11:34:00,73.4,71.3,29.79,SE,144,0.0,0.0,93,0.02,-RA,,0.09,WeatherDisplay:10.37,2013-09-02 15:34:00,
2013-09-02 11:39:00,73.2,71.1,29.78,SE,144,0.0,0.0,93,0.01,-RA,,0.09,WeatherDisplay:10.37,2013-09-02 15:39:00,
2013-09-02 11:44:00,73.1,71.0,29.78,SE,144,1.2,1.2,93,0.00,-RA,,0.09,WeatherDisplay:10.37,2013-09-02 15:44:00,
2013-09-02 11:49:00,72.9,70.8,29.78,SE,144,0.0,0.0,93,0.00,-RA,,0.09,WeatherDisplay:10.37,2013-09-02 15:49:00,
2013-09-02 11:54:00,72.9,70.8,29.78,ESE,113,2.3,2.3,93,0.00,-RA,,0.09,WeatherDisplay:10.37,2013-09-02 15:54:00,
2013-09-02 11:59:00,73.0,70.9,29.78,North,6,0.0,0.0,93,0.00,-RA,,0.09,WeatherDisplay:10.37,2013-09-02 15:59:00,
2013-09-02 12:04:00,73.0,70.9,29.78,North,6,0.0,0.0,93,0.00,CLR,,0.09,WeatherDisplay:10.37,2013-09-02 16:04:00,
2013-09-02 12:09:00,73.2,71.1,29.79,North,6,0.0,0.0,93,0.00,CLR,,0.09,WeatherDisplay:10.37,2013-09-02 16:09:00,
2013-09-02 12:14:00,73.1,71.0,29.78,NE,41,0.0,0.0,93,0.00,CLR,,0.09,WeatherDisplay:10.37,2013-09-02 16:14:00,
2013-09-02 12:19:00,73.7,71.6,29.78,SW,220,1.2,0.0,93,0.00,CLR,,0.09,WeatherDisplay:10.37,2013-09-02 16:19:00,
2013-09-02 12:24:00,74.0,71.9,29.78,SW,220,0.0,0.0,93,0.00,CLR,,0.09,WeatherDisplay:10.37,2013-09-02 16:24:00,
2013-09-02 12:29:00,73.8,71.4,29.77,SW,220,0.0,0.0,92,0.00,CLR,,0.09,WeatherDisplay:10.37,2013-09-02 16:29:00,
2013-09-02 12:34:00,74.2,71.8,29.77,NNE,32,0.0,0.0,92,0.00,CLR,,0.09,WeatherDisplay:10.37,2013-09-02 16:34:00,
2013-09-02 12:39:00,74.2,71.4,29.77,NNE,23,2.3,2.3,91,0.00,CLR,,0.09,WeatherDisplay:10.37,2013-09-02 16:39:00,
2013-09-02 12:44:00,74.3,71.5,29.77,East,80,0.7,0.0,91,0.00,CLR,,0.09,WeatherDisplay:10.37,2013-09-02 16:44:00,
2013-09-02 12:49:00,74.3,71.2,29.77,South,191,1.2,1.2,90,0.00,CLR,,0.09,WeatherDisplay:10.37,2013-09-02 16:49:00,
2013-09-02 12:54:00,74.5,70.7,29.76,East,93,0.0,0.0,88,0.00,CLR,,0.09,WeatherDisplay:10.37,2013-09-02 16:54:00,
2013-09-02 12:59:00,75.0,71.2,29.76,East,86,0.0,0.0,88,0.00,CLR,,0.09,WeatherDisplay:10.37,2013-09-02 16:59:00,
2013-09-02 13:04:00,75.3,70.9,29.76,East,86,0.0,0.0,86,0.00,FEW,,0.09,WeatherDisplay:10.37,2013-09-02 17:04:00,
2013-09-02 13:09:00,75.7,71.3,29.76,East,80,1.2,1.2,86,0.00,FEW,,0.09,WeatherDisplay:10.37,2013-09-02 17:09:00,
2013-09-02 13:14:00,76.0,71.5,29.76,North,6,2.3,2.3,86,0.00,FEW,,0.09,WeatherDisplay:10.37,2013-09-02 17:14:00,
2013-09-02 13:19:00,76.2,71.4,29.75,NNE,27,0.0,0.0,85,0.00,FEW,,0.09,WeatherDisplay:10.37,2013-09-02 17:19:00,
2013-09-02 13:24:00,76.6,71.1,29.75,NE,42,1.2,1.2,83,0.00,FEW,,0.09,WeatherDisplay:10.37,2013-09-02 17:24:00,
2013-09-02 13:29:00,76.7,71.2,29.75,NNE,27,0.0,0.0,83,0.00,FEW,,0.09,WeatherDisplay:10.37,2013-09-02 17:29:00,
2013-09-02 13:34:00,76.7,71.5,29.75,NNE,27,0.0,0.0,84,0.00,BKN,,0.09,WeatherDisplay:10.37,2013-09-02 17:34:00,
2013-09-02 13:39:00,77.1,71.2,29.75,NW,313,1.4,1.4,82,0.00,BKN,,0.09,WeatherDisplay:10.37,2013-09-02 17:39:00,
2013-09-02 13:44:00,77.3,71.1,29.75,West,275,0.0,0.0,81,0.00,BKN,,0.09,WeatherDisplay:10.37,2013-09-02 17:44:00,
2013-09-02 13:49:00,77.6,71.0,29.75,West,275,0.0,0.0,80,0.00,BKN,,0.09,WeatherDisplay:10.37,2013-09-02 17:49:00,
2013-09-02 13:54:00,77.8,71.5,29.75,West,275,0.0,0.0,81,0.00,BKN,,0.09,WeatherDisplay:10.37,2013-09-02 17:54:00,
2013-09-02 13:59:00,78.2,71.9,29.75,West,275,0.0,0.0,81,0.00,BKN,,0.09,WeatherDisplay:10.37,2013-09-02 17:59:00,
2013-09-02 14:04:00,78.0,72.1,29.75,South,181,0.0,0.0,82,0.00,BKN,,0.09,WeatherDisplay:10.37,2013-09-02 18:04:00,
2013-09-02 14:09:00,78.2,72.3,29.75,South,181,0.0,0.0,82,0.00,BKN,,0.09,WeatherDisplay:10.37,2013-09-02 18:09:00,
2013-09-02 14:14:00,77.9,71.6,29.75,South,181,0.0,0.0,81,0.00,BKN,,0.09,WeatherDisplay:10.37,2013-09-02 18:14:00,
2013-09-02 14:19:00,78.2,72.3,29.75,South,181,0.0,0.0,82,0.00,BKN,,0.09,WeatherDisplay:10.37,2013-09-02 18:19:00,
2013-09-02 14:24:00,78.2,72.6,29.74,South,181,0.0,0.0,83,0.00,BKN,,0.09,WeatherDisplay:10.37,2013-09-02 18:24:00,
2013-09-02 14:29:00,78.2,72.6,29.74,South,181,0.0,0.0,83,0.00,BKN,,0.09,WeatherDisplay:10.37,2013-09-02 18:29:00,
2013-09-02 14:34:00,77.9,72.4,29.74,SSW,212,0.0,0.0,83,0.00,BKN,,0.09,WeatherDisplay:10.37,2013-09-02 18:34:00,
2013-09-02 14:39:00,77.8,71.9,29.74,SSW,210,0.0,0.0,82,0.00,BKN,,0.09,WeatherDisplay:10.37,2013-09-02 18:39:00,
2013-09-02 14:44:00,78.0,72.1,29.74,SSW,210,0.0,0.0,82,0.00,BKN,,0.09,WeatherDisplay:10.37,2013-09-02 18:44:00,
2013-09-02 14:49:00,77.8,71.5,29.74,WNW,289,0.0,0.0,81,0.00,BKN,,0.09,WeatherDisplay:10.37,2013-09-02 18:49:00,
2013-09-02 14:54:00,77.8,71.9,29.75,WNW,289,0.0,0.0,82,0.00,BKN,,0.09,WeatherDisplay:10.37,2013-09-02 18:54:00,
2013-09-02 14:59:00,78.2,71.9,29.75,WNW,289,0.0,0.0,81,0.00,BKN,,0.09,WeatherDisplay:10.37,2013-09-02 18:59:00,
2013-09-02 15:04:00,78.2,72.3,29.75,North,4,1.2,1.2,82,0.00,-RA,,0.09,WeatherDisplay:10.37,2013-09-02 19:04:00,
2013-09-02 15:09:00,78.2,71.6,29.75,SW,222,2.3,2.3,80,0.00,-RA,,0.09,WeatherDisplay:10.37,2013-09-02 19:09:00,
2013-09-02 15:14:00,78.4,71.4,29.74,West,265,0.0,0.0,79,0.00,-RA,,0.09,WeatherDisplay:10.37,2013-09-02 19:14:00,
2013-09-02 15:19:00,78.7,72.0,29.75,WSW,237,0.0,0.0,80,0.00,-RA,,0.09,WeatherDisplay:10.37,2013-09-02 19:19:00,
2013-09-02 15:24:00,78.5,71.9,29.75,ESE,106,3.5,3.5,80,0.00,-RA,,0.09,WeatherDisplay:10.37,2013-09-02 19:24:00,
2013-09-02 15:29:00,78.0,71.4,29.75,ESE,109,4.6,4.6,80,0.00,-RA,,0.09,WeatherDisplay:10.37,2013-09-02 19:29:00,
2013-09-02 15:34:00,77.2,70.6,29.75,South,188,8.1,8.1,80,0.00,OVC,,0.09,WeatherDisplay:10.37,2013-09-02 19:34:00,
2013-09-02 15:39:00,76.6,70.0,29.74,SW,219,3.4,3.4,80,0.00,OVC,,0.09,WeatherDisplay:10.37,2013-09-02 19:39:00,
2013-09-02 15:44:00,76.0,70.1,29.74,WNW,285,5.3,5.3,82,0.00,OVC,,0.09,WeatherDisplay:10.37,2013-09-02 19:44:00,
2013-09-02 15:49:00,75.9,70.0,29.74,SSW,195,5.8,5.8,82,0.00,OVC,,0.09,WeatherDisplay:10.37,2013-09-02 19:49:00,
2013-09-02 15:54:00,75.8,69.9,29.74,ESE,103,5.7,5.7,82,0.00,OVC,,0.09,WeatherDisplay:10.37,2013-09-02 19:54:00,
2013-09-02 15:59:00,75.4,69.6,29.74,SSE,147,3.5,3.5,82,0.00,OVC,,0.09,WeatherDisplay:10.37,2013-09-02 19:59:00,
2013-09-02 16:04:00,74.9,69.4,29.74,ENE,69,2.3,2.3,83,0.00,OVC,,0.09,WeatherDisplay:10.37,2013-09-02 20:04:00,
2013-09-02 16:09:00,74.9,69.4,29.74,South,188,3.5,3.5,83,0.00,OVC,,0.09,WeatherDisplay:10.37,2013-09-02 20:09:00,
2013-09-02 16:14:00,74.4,67.9,29.73,SSE,165,3.5,3.5,80,0.00,OVC,,0.09,WeatherDisplay:10.37,2013-09-02 20:14:00,
2013-09-02 16:19:00,74.3,67.8,29.74,SW,216,4.6,4.6,80,0.00,OVC,,0.09,WeatherDisplay:10.37,2013-09-02 20:19:00,
2013-09-02 16:24:00,74.2,68.0,29.74,SE,145,3.5,3.5,81,0.00,OVC,,0.09,WeatherDisplay:10.37,2013-09-02 20:24:00,
2013-09-02 16:29:00,74.4,68.6,29.73,SE,138,6.9,6.9,82,0.00,OVC,,0.09,WeatherDisplay:10.37,2013-09-02 20:29:00,
2013-09-02 16:34:00,74.2,68.4,29.73,SE,138,4.7,4.7,82,0.00, +RA,,0.09,WeatherDisplay:10.37,2013-09-02 20:34:00,
2013-09-02 16:39:00,74.6,68.4,29.73,West,261,3.5,3.5,81,0.00, +RA,,0.09,WeatherDisplay:10.37,2013-09-02 20:39:00,
2013-09-02 16:44:00,75.0,69.2,29.73,ESE,110,6.9,6.9,82,0.00, +RA,,0.09,WeatherDisplay:10.37,2013-09-02 20:44:00,
2013-09-02 16:49:00,75.2,68.6,29.73,East,93,5.8,5.8,80,0.00, +RA,,0.09,WeatherDisplay:10.37,2013-09-02 20:49:00,
2013-09-02 16:54:00,75.1,68.5,29.72,SSW,193,5.8,5.8,80,0.00, +RA,,0.09,WeatherDisplay:10.37,2013-09-02 20:54:00,
2013-09-02 16:59:00,75.1,69.3,29.73,SSW,199,5.1,5.1,82,0.00, +RA,,0.09,WeatherDisplay:10.37,2013-09-02 20:59:00,
2013-09-02 17:04:00,75.3,69.1,29.73,WNW,288,6.9,6.9,81,0.00, +RA,,0.09,WeatherDisplay:10.37,2013-09-02 21:04:00,
2013-09-02 17:09:00,75.3,69.1,29.73,SSE,147,8.1,8.1,81,0.00, +RA,,0.09,WeatherDisplay:10.37,2013-09-02 21:09:00,
2013-09-02 17:14:00,75.3,69.5,29.73,SSE,165,3.5,3.5,82,0.00, +RA,,0.09,WeatherDisplay:10.37,2013-09-02 21:14:00,
2013-09-02 17:19:00,75.1,68.5,29.73,SSE,161,6.2,6.2,80,0.00,-RA,,0.09,WeatherDisplay:10.37,2013-09-02 21:19:00,
2013-09-02 17:24:00,74.7,68.5,29.73,SSW,199,6.2,6.2,81,0.00,-RA,,0.09,WeatherDisplay:10.37,2013-09-02 21:24:00,
2013-09-02 17:29:00,74.6,68.4,29.73,SSE,160,4.3,4.3,81,0.00,-RA,,0.09,WeatherDisplay:10.37,2013-09-02 21:29:00,
2013-09-02 17:34:00,74.2,68.4,29.73,WSW,254,5.8,5.8,82,0.00,-RA,,0.09,WeatherDisplay:10.37,2013-09-02 21:34:00,
2013-09-02 17:39:00,74.2,68.7,29.72,West,274,4.6,4.6,83,0.00,-RA,,0.09,WeatherDisplay:10.37,2013-09-02 21:39:00,
2013-09-02 17:44:00,73.8,68.4,29.72,WNW,291,1.3,1.3,83,0.00,-RA,,0.09,WeatherDisplay:10.37,2013-09-02 21:44:00,
2013-09-02 17:49:00,74.0,68.9,29.72,West,268,1.7,1.7,84,0.00,-RA,,0.09,WeatherDisplay:10.37,2013-09-02 21:49:00,
2013-09-02 17:54:00,73.5,68.4,29.72,ENE,68,1.2,1.2,84,0.00,-RA,,0.09,WeatherDisplay:10.37,2013-09-02 21:54:00,
2013-09-02 17:59:00,73.7,68.9,29.73,NE,35,1.2,1.2,85,0.00,-RA,,0.09,WeatherDisplay:10.37,2013-09-02 21:59:00,
2013-09-02 18:04:00,73.5,69.1,29.73,NW,315,0.0,0.0,86,0.00,OVC,,0.09,WeatherDisplay:10.37,2013-09-02 22:04:00,
2013-09-02 18:09:00,73.6,69.2,29.73,North,6,0.0,0.0,86,0.00,OVC,,0.09,WeatherDisplay:10.37,2013-09-02 22:09:00,
2013-09-02 18:14:00,73.3,68.9,29.73,WNW,284,0.0,0.0,86,0.00,OVC,,0.09,WeatherDisplay:10.37,2013-09-02 22:14:00,
2013-09-02 18:19:00,73.1,69.0,29.74,WNW,284,0.0,0.0,87,0.00,OVC,,0.09,WeatherDisplay:10.37,2013-09-02 22:19:00,
2013-09-02 18:24:00,73.3,69.2,29.74,WNW,302,3.5,3.5,87,0.00,OVC,,0.09,WeatherDisplay:10.37,2013-09-02 22:24:00,
2013-09-02 18:29:00,73.1,69.4,29.74,WNW,298,1.2,1.2,88,0.00,OVC,,0.09,WeatherDisplay:10.37,2013-09-02 22:29:00,
2013-09-02 18:34:00,73.4,69.7,29.74,WNW,299,4.0,4.0,88,0.00,OVC,,0.09,WeatherDisplay:10.37,2013-09-02 22:34:00,
2013-09-02 18:39:00,72.9,69.2,29.73,West,281,6.1,6.1,88,0.00,OVC,,0.09,WeatherDisplay:10.37,2013-09-02 22:39:00,
2013-09-02 18:44:00,73.0,69.3,29.73,West,272,8.6,8.6,88,0.00,OVC,,0.09,WeatherDisplay:10.37,2013-09-02 22:44:00,
2013-09-02 18:49:00,73.0,69.3,29.72,WSW,247,3.5,3.5,88,0.00,OVC,,0.09,WeatherDisplay:10.37,2013-09-02 22:49:00,
2013-09-02 18:55:00,73.3,69.2,29.71,West,275,3.8,3.8,87,0.00,OVC,,0.09,WeatherDisplay:10.37,2013-09-02 22:55:00,
2013-09-02 19:00:00,73.4,68.7,29.70,SSW,202,4.6,4.6,85,0.00,OVC,,0.09,WeatherDisplay:10.37,2013-09-02 23:00:00,
2013-09-02 19:05:00,73.5,68.8,29.70,SSW,199,5.1,5.1,85,0.00,OVC,,0.09,WeatherDisplay:10.37,2013-09-02 23:05:00,
2013-09-02 19:10:00,73.4,68.3,29.69,West,271,2.4,2.4,84,0.00,OVC,,0.09,WeatherDisplay:10.37,2013-09-02 23:10:00,
2013-09-02 19:15:00,73.6,68.2,29.70,WNW,296,3.5,3.5,83,0.00,OVC,,0.09,WeatherDisplay:10.37,2013-09-02 23:15:00,
2013-09-02 19:20:00,74.0,68.9,29.69,West,281,2.5,2.5,84,0.00,OVC,,0.09,WeatherDisplay:10.37,2013-09-02 23:20:00,
2013-09-02 19:25:00,73.7,68.6,29.69,SE,126,2.3,2.3,84,0.00,OVC,,0.09,WeatherDisplay:10.37,2013-09-02 23:25:00,
2013-09-02 19:30:00,73.3,68.6,29.69,WSW,253,2.4,2.4,85,0.00,OVC,,0.09,WeatherDisplay:10.37,2013-09-02 23:30:00,
2013-09-02 19:35:00,73.1,68.7,29.69,WNW,288,5.0,5.0,86,0.00,OVC,,0.09,WeatherDisplay:10.37,2013-09-02 23:35:00,
2013-09-02 19:40:00,72.9,68.5,29.69,SSW,209,5.2,5.2,86,0.00,OVC,,0.09,WeatherDisplay:10.37,2013-09-02 23:40:00,
2013-09-02 19:45:00,72.7,68.3,29.69,WSW,253,3.5,3.5,86,0.00,OVC,,0.09,WeatherDisplay:10.37,2013-09-02 23:45:00,
2013-09-02 19:50:00,72.7,68.3,29.69,SSW,205,3.5,3.5,86,0.00,OVC,,0.09,WeatherDisplay:10.37,2013-09-02 23:50:00,
2013-09-02 19:55:00,73.0,68.6,29.70,WNW,292,1.2,0.0,86,0.00,OVC,,0.09,WeatherDisplay:10.37,2013-09-02 23:55:00,
2013-09-02 20:00:00,72.9,68.5,29.70,WNW,292,0.0,0.0,86,0.00,OVC,,0.09,WeatherDisplay:10.37,2013-09-03 00:00:00,
2013-09-02 20:05:00,73.0,68.6,29.70,WSW,253,8.1,8.1,86,0.00,CLR,,0.09,WeatherDisplay:10.37,2013-09-03 00:05:00,
2013-09-02 20:10:00,73.0,68.6,29.70,NW,304,0.0,0.0,86,0.00,CLR,,0.09,WeatherDisplay:10.37,2013-09-03 00:10:00,
2013-09-02 20:15:00,73.0,68.6,29.70,NW,304,0.0,0.0,86,0.00,CLR,,0.09,WeatherDisplay:10.37,2013-09-03 00:15:00,
2013-09-02 20:20:00,73.0,68.6,29.70,NW,304,0.0,0.0,86,0.00,CLR,,0.09,WeatherDisplay:10.37,2013-09-03 00:20:00,
2013-09-02 20:25:00,73.0,68.6,29.70,NW,306,2.9,2.9,86,0.00,CLR,,0.09,WeatherDisplay:10.37,2013-09-03 00:25:00,
2013-09-02 20:30:00,73.0,68.9,29.71,NNW,329,3.5,3.5,87,0.00,CLR,,0.09,WeatherDisplay:10.37,2013-09-03 00:30:00,
2013-09-02 20:35:00,72.9,68.8,29.71,North,4,4.6,4.6,87,0.00,CLR,,0.09,WeatherDisplay:10.37,2013-09-03 00:35:00,
2013-09-02 20:40:00,72.6,68.5,29.71,NNE,21,2.7,2.7,87,0.00,CLR,,0.09,WeatherDisplay:10.37,2013-09-03 00:40:00,
2013-09-02 20:45:00,72.6,68.9,29.71,NNW,329,2.2,2.2,88,0.00,CLR,,0.09,WeatherDisplay:10.37,2013-09-03 00:45:00,
2013-09-02 20:50:00,72.2,68.5,29.72,NW,319,0.0,0.0,88,0.00,CLR,,0.09,WeatherDisplay:10.37,2013-09-03 00:50:00,
2013-09-02 20:55:00,72.3,68.9,29.72,East,92,0.0,0.0,89,0.00,CLR,,0.09,WeatherDisplay:10.37,2013-09-03 00:55:00,
2013-09-02 21:00:00,72.0,68.6,29.72,East,79,2.3,0.0,89,0.00,CLR,,0.09,WeatherDisplay:10.37,2013-09-03 01:00:00,
2013-09-02 21:05:00,72.1,68.7,29.72,SSE,161,2.3,2.3,89,0.00,,,0.09,WeatherDisplay:10.37,2013-09-03 01:05:00,
2013-09-02 21:10:00,71.9,68.8,29.72,SE,124,1.4,1.4,90,0.00,,,0.09,WeatherDisplay:10.37,2013-09-03 01:10:00,
2013-09-02 21:15:00,72.0,68.9,29.72,NE,45,1.2,1.2,90,0.00,,,0.09,WeatherDisplay:10.37,2013-09-03 01:15:00,
2013-09-02 21:20:00,72.0,68.9,29.73,ESE,109,3.5,3.5,90,0.00,,,0.09,WeatherDisplay:10.37,2013-09-03 01:20:00,
2013-09-02 21:25:00,72.1,69.0,29.73,WSW,256,0.0,0.0,90,0.00,,,0.09,WeatherDisplay:10.37,2013-09-03 01:25:00,
2013-09-02 21:30:00,72.0,68.9,29.73,ESE,102,2.3,2.3,90,0.00,,,0.09,WeatherDisplay:10.37,2013-09-03 01:30:00,
2013-09-02 21:35:00,71.9,68.8,29.73,ENE,61,0.0,0.0,90,0.00,,,0.09,WeatherDisplay:10.37,2013-09-03 01:35:00,
2013-09-02 21:40:00,71.7,68.6,29.73,East,88,1.9,1.9,90,0.00,,,0.09,WeatherDisplay:10.37,2013-09-03 01:40:00,
2013-09-02 21:45:00,71.6,68.5,29.74,NNE,27,2.3,2.3,90,0.00,,,0.09,WeatherDisplay:10.37,2013-09-03 01:45:00,
2013-09-02 21:50:00,71.3,68.6,29.74,NNE,27,0.0,0.0,91,0.00,,,0.09,WeatherDisplay:10.37,2013-09-03 01:50:00,
2013-09-02 21:56:00,71.2,68.5,29.74,NNE,27,0.0,0.0,91,0.00,,,0.09,WeatherDisplay:10.37,2013-09-03 01:56:00,
2013-09-02 22:01:00,71.3,68.6,29.75,NNE,27,0.0,0.0,91,0.00,,,0.09,WeatherDisplay:10.37,2013-09-03 02:01:00,
2013-09-02 22:06:00,71.1,68.7,29.75,NNE,27,0.0,0.0,92,0.00,,,0.09,WeatherDisplay:10.37,2013-09-03 02:06:00,
2013-09-02 22:11:00,71.0,68.6,29.75,NNE,27,0.0,0.0,92,0.00,,,0.09,WeatherDisplay:10.37,2013-09-03 02:11:00,
2013-09-02 22:16:00,70.8,68.4,29.75,NNE,27,0.0,0.0,92,0.00,,,0.09,WeatherDisplay:10.37,2013-09-03 02:16:00,
2013-09-02 22:21:00,70.7,68.3,29.75,NNE,27,0.0,0.0,92,0.00,,,0.09,WeatherDisplay:10.37,2013-09-03 02:21:00,
2013-09-02 22:26:00,70.5,68.1,29.76,NNE,27,0.0,0.0,92,0.00,,,0.09,WeatherDisplay:10.37,2013-09-03 02:26:00,
2013-09-02 22:31:00,70.4,68.0,29.76,NNE,27,0.0,0.0,92,0.00,,,0.09,WeatherDisplay:10.37,2013-09-03 02:31:00,
2013-09-02 22:36:00,70.3,67.9,29.76,NNE,27,0.0,0.0,92,0.00,,,0.09,WeatherDisplay:10.37,2013-09-03 02:36:00,
2013-09-02 22:41:00,70.4,68.3,29.76,NNE,27,0.0,0.0,93,0.00,,,0.09,WeatherDisplay:10.37,2013-09-03 02:41:00,
2013-09-02 22:46:00,70.3,68.2,29.76,NNE,27,0.0,0.0,93,0.00,,,0.09,WeatherDisplay:10.37,2013-09-03 02:46:00,
2013-09-02 22:51:00,70.1,68.0,29.77,NNE,27,0.0,0.0,93,0.00,,,0.09,WeatherDisplay:10.37,2013-09-03 02:51:00,
2013-09-02 22:56:00,70.4,68.3,29.77,NNE,27,0.0,0.0,93,0.00,,,0.09,WeatherDisplay:10.37,2013-09-03 02:56:00,
2013-09-02 23:01:00,70.1,67.7,29.77,NNE,27,0.0,0.0,92,0.00,,,0.09,WeatherDisplay:10.37,2013-09-03 03:01:00,
2013-09-02 23:06:00,70.0,67.6,29.77,NNE,27,0.0,0.0,92,0.00,BKN,,0.09,WeatherDisplay:10.37,2013-09-03 03:06:00,
2013-09-02 23:11:00,70.0,67.6,29.77,NNE,27,0.0,0.0,92,0.00,BKN,,0.09,WeatherDisplay:10.37,2013-09-03 03:11:00,
2013-09-02 23:16:00,69.5,67.4,29.78,NNE,27,0.0,0.0,93,0.00,BKN,,0.09,WeatherDisplay:10.37,2013-09-03 03:16:00,
2013-09-02 23:21:00,69.3,67.2,29.78,NNE,27,0.0,0.0,93,0.00,BKN,,0.09,WeatherDisplay:10.37,2013-09-03 03:21:00,
2013-09-02 23:26:00,69.3,66.9,29.78,NNE,27,0.0,0.0,92,0.00,BKN,,0.09,WeatherDisplay:10.37,2013-09-03 03:26:00,
2013-09-02 23:31:00,69.2,67.1,29.78,NNE,27,0.0,0.0,93,0.00,BKN,,0.09,WeatherDisplay:10.37,2013-09-03 03:31:00,
2013-09-02 23:36:00,69.1,67.0,29.78,NNE,27,0.0,0.0,93,0.00,OVC,,0.09,WeatherDisplay:10.37,2013-09-03 03:36:00,
2013-09-02 23:41:00,69.0,66.9,29.79,NNE,27,0.0,0.0,93,0.00,OVC,,0.09,WeatherDisplay:10.37,2013-09-03 03:41:00,
2013-09-02 23:46:00,69.1,67.0,29.79,NNE,27,0.0,0.0,93,0.00,OVC,,0.09,WeatherDisplay:10.37,2013-09-03 03:46:00,
2013-09-02 23:51:00,68.9,66.8,29.79,NNE,27,0.0,0.0,93,0.00,OVC,,0.09,WeatherDisplay:10.37,2013-09-03 03:51:00,
2013-09-02 23:56:00,68.9,66.8,29.79,NNE,27,0.0,0.0,93,0.00,OVC,,0.09,WeatherDisplay:10.37,2013-09-03 03:56:00,